createdAt,value
2022-09-15T00:01:10.050Z,20.00
2022-09-15T00:03:37.530Z,20.00
2022-09-15T00:06:05.502Z,20.00
2022-09-15T00:08:32.563Z,20.00
2022-09-15T00:11:17.257Z,20.00
2022-09-15T00:13:45.311Z,20.00
2022-09-15T00:16:15.236Z,20.00
2022-09-15T00:18:44.730Z,20.00
2022-09-15T00:21:18.913Z,20.00
2022-09-15T00:23:46.991Z,20.00
2022-09-15T00:26:19.238Z,20.10
2022-09-15T00:28:46.425Z,20.00
2022-09-15T00:31:17.126Z,20.00
2022-09-15T00:33:48.726Z,20.00
2022-09-15T00:36:17.017Z,20.00
2022-09-15T00:38:44.635Z,20.00
2022-09-15T00:41:15.123Z,20.00
2022-09-15T00:43:47.787Z,20.00
2022-09-15T00:46:19.992Z,20.00
2022-09-15T00:49:26.339Z,20.00
2022-09-15T00:52:16.078Z,20.00
2022-09-15T00:54:52.819Z,20.00
2022-09-15T00:57:28.361Z,20.00
2022-09-15T01:00:00.344Z,20.00
2022-09-15T01:02:34.348Z,20.00
2022-09-15T01:05:10.487Z,20.00
2022-09-15T01:07:59.082Z,20.10
2022-09-15T01:10:28.704Z,20.10
2022-09-15T01:13:00.333Z,20.10
2022-09-15T01:16:01.843Z,20.10
2022-09-15T01:19:14.861Z,20.10
2022-09-15T01:21:56.805Z,20.10
2022-09-15T01:25:02.736Z,20.10
2022-09-15T01:27:50.577Z,20.10
2022-09-15T01:30:21.768Z,20.10
2022-09-15T01:33:28.929Z,20.10
2022-09-15T01:36:07.315Z,20.10
2022-09-15T01:39:06.919Z,20.10
2022-09-15T01:42:10.262Z,20.10
2022-09-15T01:44:51.812Z,20.20
2022-09-15T01:47:21.350Z,20.10
2022-09-15T01:49:59.397Z,20.10
2022-09-15T01:52:28.051Z,20.10
2022-09-15T01:55:00.391Z,20.10
2022-09-15T01:57:28.056Z,20.10
2022-09-15T01:59:56.531Z,20.20
2022-09-15T02:02:30.678Z,20.20
2022-09-15T02:05:25.271Z,20.20
2022-09-15T02:07:58.986Z,20.20
2022-09-15T02:11:03.352Z,20.30
2022-09-15T02:14:14.257Z,20.30
2022-09-15T02:16:48.502Z,20.30
2022-09-15T02:19:41.127Z,20.40
2022-09-15T02:22:27.919Z,20.40
2022-09-15T02:25:03.013Z,20.40
2022-09-15T02:27:37.772Z,20.50
2022-09-15T02:30:11.858Z,20.50
2022-09-15T02:32:54.434Z,20.60
2022-09-15T02:35:23.452Z,20.60
2022-09-15T02:37:51.881Z,20.60
2022-09-15T02:40:19.226Z,20.60
2022-09-15T02:42:55.870Z,20.60
2022-09-15T02:45:27.121Z,20.60
2022-09-15T02:47:54.085Z,20.60
2022-09-15T02:50:20.985Z,20.60
2022-09-15T02:52:47.761Z,20.60
2022-09-15T02:55:15.798Z,20.60
2022-09-15T02:57:42.598Z,20.60
2022-09-15T03:00:13.699Z,20.60
2022-09-15T03:02:52.386Z,20.60
2022-09-15T03:05:23.754Z,20.50
2022-09-15T03:07:51.566Z,20.50
2022-09-15T03:10:18.645Z,20.60
2022-09-15T03:12:51.761Z,20.50
2022-09-15T03:15:25.207Z,20.50
2022-09-15T03:17:53.561Z,20.50
2022-09-15T03:20:27.691Z,20.50
2022-09-15T03:22:54.753Z,20.50
2022-09-15T03:25:21.934Z,20.50
2022-09-15T03:27:48.737Z,20.50
2022-09-15T03:30:15.626Z,20.50
2022-09-15T03:32:42.482Z,20.50
2022-09-15T03:35:09.988Z,20.50
2022-09-15T03:37:37.197Z,20.50
2022-09-15T03:40:05.250Z,20.50
2022-09-15T03:42:32.316Z,20.50
2022-09-15T03:44:59.188Z,20.50
2022-09-15T03:47:26.109Z,20.50
2022-09-15T03:49:52.952Z,20.50
2022-09-15T03:52:19.765Z,20.50
2022-09-15T03:54:48.972Z,20.50
2022-09-15T03:57:18.366Z,20.50
2022-09-15T03:59:45.237Z,20.60
2022-09-15T04:02:12.141Z,20.60
2022-09-15T04:04:38.954Z,20.60
2022-09-15T04:07:05.805Z,20.60
2022-09-15T04:09:32.666Z,20.60
2022-09-15T04:11:59.466Z,20.60
2022-09-15T04:14:26.286Z,20.70
2022-09-15T04:16:53.147Z,20.70
2022-09-15T04:19:20.204Z,20.70
2022-09-15T04:21:47.482Z,20.70
2022-09-15T04:24:14.503Z,20.80
2022-09-15T04:26:41.345Z,20.80
2022-09-15T04:29:14.936Z,20.80
2022-09-15T04:31:42.464Z,20.80
2022-09-15T04:34:09.398Z,20.80
2022-09-15T04:36:36.441Z,20.90
2022-09-15T04:39:06.042Z,20.90
2022-09-15T04:41:33.659Z,20.90
2022-09-15T04:44:01.104Z,20.90
2022-09-15T04:46:28.063Z,20.90
2022-09-15T04:48:56.574Z,20.90
2022-09-15T04:51:24.396Z,20.90
2022-09-15T04:53:51.975Z,20.90
2022-09-15T04:56:25.659Z,20.90
2022-09-15T04:59:02.481Z,20.90
2022-09-15T05:01:35.380Z,20.90
2022-09-15T05:04:04.421Z,21.00
2022-09-15T05:06:32.130Z,21.00
2022-09-15T05:08:58.998Z,21.00
2022-09-15T05:11:27.064Z,21.00
2022-09-15T05:13:54.425Z,21.00
2022-09-15T05:16:25.009Z,21.10
2022-09-15T05:18:54.532Z,21.10
2022-09-15T05:21:23.379Z,21.10
2022-09-15T05:23:54.221Z,21.10
2022-09-15T05:26:26.875Z,21.10
2022-09-15T05:28:57.610Z,21.20
2022-09-15T05:31:27.250Z,21.20
2022-09-15T05:33:54.805Z,21.20
2022-09-15T05:36:25.266Z,21.20
2022-09-15T05:38:56.805Z,21.10
2022-09-15T05:41:24.578Z,21.10
2022-09-15T05:43:52.247Z,21.10
2022-09-15T05:46:20.527Z,21.10
2022-09-15T05:48:47.644Z,21.10
2022-09-15T05:51:15.218Z,21.10
2022-09-15T05:53:42.295Z,21.10
2022-09-15T05:56:13.453Z,21.10
2022-09-15T05:58:43.007Z,21.10
2022-09-15T06:01:19.008Z,21.20
2022-09-15T06:03:47.531Z,21.20
2022-09-15T06:06:14.782Z,21.20
2022-09-15T06:08:56.878Z,21.20
2022-09-15T06:11:28.880Z,21.20
2022-09-15T06:13:56.245Z,21.20
2022-09-15T06:16:24.840Z,21.20
2022-09-15T06:18:53.800Z,21.20
2022-09-15T06:21:25.493Z,21.20
2022-09-15T06:23:57.575Z,21.10
2022-09-15T06:26:25.424Z,21.20
2022-09-15T06:28:59.628Z,21.10
2022-09-15T06:31:29.487Z,21.10
2022-09-15T06:33:57.720Z,21.10
2022-09-15T06:36:28.685Z,21.10
2022-09-15T06:38:55.919Z,21.10
2022-09-15T06:41:23.609Z,21.10
2022-09-15T06:43:50.466Z,21.10
2022-09-15T06:46:24.975Z,21.00
2022-09-15T06:48:53.487Z,21.00
2022-09-15T06:51:23.931Z,21.10
2022-09-15T06:53:50.996Z,21.10
2022-09-15T06:56:21.539Z,21.10
2022-09-15T06:58:49.359Z,21.10
2022-09-15T07:01:34.361Z,21.10
2022-09-15T07:04:05.638Z,21.10
2022-09-15T07:06:34.208Z,21.10
2022-09-15T07:09:02.525Z,21.00
2022-09-15T07:11:30.856Z,20.90
2022-09-15T07:13:58.071Z,20.70
2022-09-15T07:16:25.852Z,20.50
2022-09-15T07:18:56.968Z,20.30
2022-09-15T07:21:24.656Z,20.10
2022-09-15T07:23:51.990Z,19.90
2022-09-15T07:26:23.721Z,19.80
2022-09-15T07:29:10.745Z,19.60
2022-09-15T07:31:39.023Z,19.60
2022-09-15T07:34:06.621Z,19.50
2022-09-15T07:36:33.871Z,19.50
2022-09-15T07:39:00.738Z,19.40
2022-09-15T07:41:31.861Z,19.40
2022-09-15T07:44:00.984Z,19.50
2022-09-15T07:46:32.168Z,19.50
2022-09-15T07:49:00.654Z,19.50
2022-09-15T07:51:27.430Z,19.60
2022-09-15T07:53:54.802Z,19.60
2022-09-15T07:56:23.936Z,19.70
2022-09-15T07:58:51.985Z,19.90
2022-09-15T08:01:20.445Z,20.10
2022-09-15T08:03:50.615Z,20.30
2022-09-15T08:06:21.537Z,20.50
2022-09-15T08:08:51.731Z,20.80
2022-09-15T08:11:21.180Z,21.10
2022-09-15T08:13:50.521Z,21.30
2022-09-15T08:16:25.058Z,21.50
2022-09-15T08:18:54.092Z,21.60
2022-09-15T08:21:22.390Z,21.70
2022-09-15T08:23:58.934Z,21.80
2022-09-15T08:26:28.163Z,21.80
2022-09-15T08:28:55.051Z,21.70
2022-09-15T08:31:24.040Z,21.80
2022-09-15T08:33:54.008Z,21.70
2022-09-15T08:36:21.460Z,21.80
2022-09-15T08:38:48.791Z,21.80
2022-09-15T08:41:33.518Z,21.90
2022-09-15T08:44:21.994Z,22.00
2022-09-15T08:47:00.797Z,22.00
2022-09-15T08:49:59.518Z,22.10
2022-09-15T08:52:52.182Z,22.30
2022-09-15T08:55:49.240Z,22.40
2022-09-15T08:58:27.025Z,22.50
2022-09-15T09:01:10.650Z,22.60
2022-09-15T09:03:37.526Z,22.70
2022-09-15T09:06:27.663Z,22.80
2022-09-15T09:09:07.958Z,23.20
2022-09-15T09:12:08.985Z,23.80
2022-09-15T09:15:13.891Z,24.20
2022-09-15T09:18:37.880Z,24.50
2022-09-15T09:21:38.443Z,24.80
2022-09-15T09:24:14.944Z,25.20
2022-09-15T09:26:42.004Z,25.50
2022-09-15T09:29:19.995Z,25.70
2022-09-15T09:31:51.188Z,25.80
2022-09-15T09:35:15.857Z,25.90
2022-09-15T09:37:42.970Z,25.90
2022-09-15T09:40:15.522Z,25.80
2022-09-15T09:42:44.672Z,25.70
2022-09-15T09:45:18.659Z,25.70
2022-09-15T09:47:48.948Z,25.80
2022-09-15T09:50:43.119Z,25.90
2022-09-15T09:53:33.688Z,26.10
2022-09-15T09:56:15.075Z,26.30
2022-09-15T09:58:41.871Z,26.50
2022-09-15T10:01:16.984Z,26.60
2022-09-15T10:03:45.222Z,26.70
2022-09-15T10:06:13.984Z,26.90
2022-09-15T10:09:03.533Z,26.90
2022-09-15T10:11:49.934Z,26.90
2022-09-15T10:14:38.442Z,26.80
2022-09-15T10:17:15.508Z,26.60
2022-09-15T10:19:55.939Z,26.60
2022-09-15T10:22:31.209Z,26.60
2022-09-15T10:25:00.549Z,26.80
2022-09-15T10:27:34.556Z,27.10
2022-09-15T10:30:18.906Z,27.50
2022-09-15T10:32:45.856Z,27.90
2022-09-15T10:35:16.715Z,28.20
2022-09-15T10:38:13.024Z,28.40
2022-09-15T10:40:54.612Z,28.40
2022-09-15T10:43:46.210Z,28.30
2022-09-15T10:46:44.013Z,28.20
2022-09-15T10:49:50.579Z,28.00
2022-09-15T10:52:28.982Z,27.70
2022-09-15T10:55:37.059Z,27.40
2022-09-15T10:58:31.782Z,27.30
2022-09-15T11:01:30.235Z,27.10
2022-09-15T11:04:38.549Z,26.90
2022-09-15T11:07:46.197Z,26.60
2022-09-15T11:10:48.534Z,26.50
2022-09-15T11:13:43.350Z,26.30
2022-09-15T11:17:02.374Z,26.20
2022-09-15T11:20:30.052Z,26.10
2022-09-15T11:23:34.255Z,26.10
2022-09-15T11:26:19.979Z,26.00
2022-09-15T11:29:07.325Z,26.00
2022-09-15T11:31:44.108Z,26.00
2022-09-15T11:34:34.648Z,25.90
2022-09-15T11:37:13.996Z,25.80
2022-09-15T11:40:07.346Z,25.80
2022-09-15T11:42:49.307Z,25.80
2022-09-15T11:45:25.564Z,25.80
2022-09-15T11:48:04.286Z,25.90
2022-09-15T11:50:38.225Z,26.00
2022-09-15T11:53:33.189Z,26.00
2022-09-15T11:56:11.816Z,26.10
2022-09-15T11:59:03.748Z,26.10
2022-09-15T12:02:10.346Z,26.00
2022-09-15T12:04:49.150Z,25.90
2022-09-15T12:07:25.142Z,25.80
2022-09-15T12:09:52.255Z,25.60
2022-09-15T12:12:22.557Z,25.50
2022-09-15T12:14:52.380Z,25.30
2022-09-15T12:17:48.972Z,25.20
2022-09-15T12:21:03.375Z,25.00
2022-09-15T12:23:42.073Z,24.90
2022-09-15T12:26:21.732Z,24.90
2022-09-15T12:29:04.359Z,24.80
2022-09-15T12:31:33.937Z,24.80
2022-09-15T12:34:24.821Z,24.80
2022-09-15T12:37:13.891Z,24.80
2022-09-15T12:39:43.387Z,24.80
2022-09-15T12:42:22.074Z,24.80
2022-09-15T12:45:02.270Z,24.70
2022-09-15T12:47:50.779Z,24.50
2022-09-15T12:50:25.530Z,24.50
2022-09-15T12:53:00.147Z,24.40
2022-09-15T12:55:37.353Z,24.30
2022-09-15T12:58:18.573Z,24.40
2022-09-15T13:01:13.968Z,24.40
2022-09-15T13:06:26.691Z,24.60
2022-09-15T13:09:02.334Z,24.60
2022-09-15T13:11:37.302Z,24.70
2022-09-15T13:14:04.485Z,24.80
2022-09-15T13:16:40.305Z,24.90
2022-09-15T13:19:41.291Z,25.00
2022-09-15T13:22:11.225Z,25.10
2022-09-15T13:24:59.263Z,25.20
2022-09-15T13:28:08.739Z,25.30
2022-09-15T13:31:13.234Z,25.50
2022-09-15T13:38:15.191Z,25.80
2022-09-15T13:40:57.641Z,25.80
2022-09-15T13:43:41.154Z,25.80
2022-09-15T13:46:51.126Z,25.80
2022-09-15T13:50:24.737Z,25.80
2022-09-15T13:53:20.531Z,25.90
2022-09-15T13:55:48.356Z,26.30
2022-09-15T14:01:08.504Z,27.30
2022-09-15T14:03:48.319Z,27.60
2022-09-15T14:06:33.532Z,27.70
2022-09-15T14:09:13.587Z,27.60
2022-09-15T14:11:42.218Z,27.30
2022-09-15T14:14:36.508Z,27.00
2022-09-15T14:17:04.185Z,26.60
2022-09-15T14:19:37.799Z,26.30
2022-09-15T14:22:32.120Z,26.00
2022-09-15T14:25:06.096Z,25.70
2022-09-15T14:27:36.481Z,25.50
2022-09-15T14:30:09.029Z,25.20
2022-09-15T14:32:43.889Z,25.00
2022-09-15T14:35:23.351Z,24.80
2022-09-15T14:37:56.685Z,24.50
2022-09-15T14:40:37.713Z,24.20
2022-09-15T14:43:30.479Z,23.90
2022-09-15T14:46:10.774Z,23.50
2022-09-15T14:48:38.181Z,23.20
2022-09-15T14:51:25.151Z,22.90
2022-09-15T14:53:58.238Z,22.70
2022-09-15T14:56:33.164Z,22.50
2022-09-15T14:59:24.104Z,22.40
2022-09-15T15:01:59.840Z,22.30
2022-09-15T15:04:40.646Z,22.30
2022-09-15T15:07:22.704Z,22.30
2022-09-15T15:10:00.146Z,22.30
2022-09-15T15:12:32.271Z,22.10
2022-09-15T15:15:00.463Z,21.90
2022-09-15T15:17:48.868Z,21.70
2022-09-15T15:20:32.870Z,21.40
2022-09-15T15:23:23.228Z,21.10
2022-09-15T15:25:50.608Z,20.80
2022-09-15T15:28:37.558Z,20.50
2022-09-15T15:31:25.058Z,20.20
2022-09-15T15:34:05.444Z,19.90
2022-09-15T15:36:35.652Z,19.70
2022-09-15T15:39:07.119Z,19.50
2022-09-15T15:41:40.907Z,19.40
2022-09-15T15:44:27.805Z,19.30
2022-09-15T15:47:17.927Z,19.20
2022-09-15T15:50:11.829Z,19.10
2022-09-15T15:52:31.475Z,19.10
2022-09-15T15:54:58.266Z,19.00
2022-09-15T15:57:33.093Z,19.00
2022-09-15T16:00:00.905Z,19.00
2022-09-15T16:02:28.242Z,19.00
2022-09-15T16:04:55.236Z,19.00
2022-09-15T16:07:24.364Z,19.00
2022-09-15T16:09:51.534Z,19.00
2022-09-15T16:12:18.352Z,19.00
2022-09-15T16:14:45.215Z,19.00
2022-09-15T16:17:12.040Z,19.00
2022-09-15T16:19:39.186Z,19.00
2022-09-15T16:22:06.041Z,19.00
2022-09-15T16:24:33.160Z,18.90
2022-09-15T16:26:59.921Z,19.00
2022-09-15T16:29:31.253Z,19.00
2022-09-15T16:31:58.808Z,19.00
2022-09-15T16:34:25.665Z,19.00
2022-09-15T16:36:52.429Z,19.00
2022-09-15T16:39:19.222Z,19.00
2022-09-15T16:41:46.009Z,19.00
2022-09-15T16:44:19.919Z,19.00
2022-09-15T16:46:46.730Z,18.90
2022-09-15T16:49:13.605Z,18.80
2022-09-15T16:51:40.423Z,18.70
2022-09-15T16:54:20.408Z,18.70
2022-09-15T16:56:47.349Z,18.60
2022-09-15T16:59:14.418Z,18.60
2022-09-15T17:01:41.365Z,18.50
2022-09-15T17:04:19.041Z,18.50
2022-09-15T17:06:45.964Z,18.40
2022-09-15T17:09:12.795Z,18.40
2022-09-15T17:11:39.775Z,18.40
2022-09-15T17:14:07.406Z,18.30
2022-09-15T17:16:34.245Z,18.20
2022-09-15T17:19:01.026Z,18.10
2022-09-15T17:21:27.917Z,18.10
2022-09-15T17:23:54.674Z,18.00
2022-09-15T17:26:30.511Z,18.00
2022-09-15T17:28:58.432Z,18.00
2022-09-15T17:31:25.826Z,17.90
2022-09-15T17:33:53.062Z,17.90
2022-09-15T17:36:20.410Z,17.90
2022-09-15T17:38:51.096Z,17.90
2022-09-15T17:41:22.820Z,17.90
2022-09-15T17:43:49.704Z,17.80
2022-09-15T17:46:16.842Z,17.80
2022-09-15T17:48:43.778Z,17.80
2022-09-15T17:51:19.675Z,17.80
2022-09-15T17:53:47.630Z,17.70
2022-09-15T17:56:14.648Z,17.70
2022-09-15T17:58:41.828Z,17.70
2022-09-15T18:01:13.396Z,17.70
2022-09-15T18:03:42.006Z,17.60
2022-09-15T18:06:10.414Z,17.60
2022-09-15T18:08:38.009Z,17.60
2022-09-15T18:11:06.725Z,17.50
2022-09-15T18:13:34.030Z,17.50
2022-09-15T18:16:13.713Z,17.50
2022-09-15T18:18:41.405Z,17.50
2022-09-15T18:21:20.982Z,17.50
2022-09-15T18:23:47.969Z,17.40
2022-09-15T18:26:14.805Z,17.40
2022-09-15T18:28:41.572Z,17.40
2022-09-15T18:31:12.904Z,17.40
2022-09-15T18:33:39.827Z,17.40
2022-09-15T18:36:08.261Z,17.30
2022-09-15T18:38:35.133Z,17.40
2022-09-15T18:41:02.205Z,17.30
2022-09-15T18:43:28.963Z,17.30
2022-09-15T18:46:00.671Z,17.30
2022-09-15T18:48:27.530Z,17.30
2022-09-15T18:50:55.008Z,17.30
2022-09-15T18:53:22.530Z,17.30
2022-09-15T18:55:49.462Z,17.30
2022-09-15T18:58:17.700Z,17.30
2022-09-15T19:00:46.253Z,17.20
2022-09-15T19:03:14.176Z,17.20
2022-09-15T19:05:41.741Z,17.20
2022-09-15T19:08:09.228Z,17.20
2022-09-15T19:10:38.263Z,17.20
2022-09-15T19:13:05.404Z,17.20
2022-09-15T19:15:34.515Z,17.20
2022-09-15T19:18:02.015Z,17.20
2022-09-15T19:20:29.255Z,17.20
2022-09-15T19:22:57.855Z,17.20
2022-09-15T19:25:24.678Z,17.20
2022-09-15T19:27:51.582Z,17.20
2022-09-15T19:30:18.473Z,17.10
2022-09-15T19:32:45.321Z,17.10
2022-09-15T19:35:12.315Z,17.10
2022-09-15T19:37:41.821Z,17.10
2022-09-15T19:40:13.353Z,17.10
2022-09-15T19:42:42.703Z,17.10
2022-09-15T19:45:11.639Z,17.20
2022-09-15T19:47:39.690Z,17.10
2022-09-15T19:50:08.653Z,17.20
2022-09-15T19:52:35.576Z,17.20
2022-09-15T19:55:03.423Z,17.20
2022-09-15T19:57:30.329Z,17.20
2022-09-15T19:59:57.261Z,17.10
2022-09-15T20:02:24.174Z,17.20
2022-09-15T20:04:51.012Z,17.20
2022-09-15T20:07:17.880Z,17.20
2022-09-15T20:09:44.769Z,17.20
2022-09-15T20:12:11.585Z,17.20
2022-09-15T20:14:38.691Z,17.20
2022-09-15T20:17:05.626Z,17.30
2022-09-15T20:19:32.649Z,17.20
2022-09-15T20:21:59.483Z,17.30
2022-09-15T20:24:26.499Z,17.30
2022-09-15T20:26:53.677Z,17.30
2022-09-15T20:29:21.483Z,17.30
2022-09-15T20:31:48.647Z,17.30
2022-09-15T20:34:16.549Z,17.30
2022-09-15T20:36:43.707Z,17.40
2022-09-15T20:39:14.351Z,17.40
2022-09-15T20:41:46.394Z,17.30
2022-09-15T20:44:14.219Z,17.40
2022-09-15T20:46:41.231Z,17.40
2022-09-15T20:49:09.315Z,17.40
2022-09-15T20:51:36.271Z,17.40
2022-09-15T20:54:05.062Z,17.40
2022-09-15T20:56:35.090Z,17.40
2022-09-15T20:59:04.390Z,17.40
2022-09-15T21:01:37.474Z,17.40
2022-09-15T21:04:06.519Z,17.30
2022-09-15T21:06:34.231Z,17.30
2022-09-15T21:09:01.291Z,17.40
2022-09-15T21:11:29.574Z,17.40
2022-09-15T21:13:57.461Z,17.40
2022-09-15T21:16:28.179Z,17.40
2022-09-15T21:18:58.094Z,17.40
2022-09-15T21:21:30.077Z,17.40
2022-09-15T21:24:04.023Z,17.30
2022-09-15T21:26:59.377Z,17.40
2022-09-15T21:29:27.740Z,17.40
2022-09-15T21:31:55.845Z,17.40
2022-09-15T21:34:23.929Z,17.40
2022-09-15T21:36:51.779Z,17.40
2022-09-15T21:39:18.658Z,17.40
2022-09-15T21:41:45.618Z,17.30
2022-09-15T21:44:12.433Z,17.30
2022-09-15T21:46:40.068Z,17.30
2022-09-15T21:49:06.938Z,17.20
2022-09-15T21:51:33.870Z,17.20
2022-09-15T21:54:01.069Z,17.20
2022-09-15T21:56:29.795Z,17.20
2022-09-15T21:58:56.805Z,17.20
2022-09-15T22:01:27.787Z,17.10
2022-09-15T22:04:01.989Z,17.10
2022-09-15T22:06:35.632Z,17.10
2022-09-15T22:09:15.922Z,17.00
2022-09-15T22:11:43.785Z,17.00
2022-09-15T22:14:11.853Z,17.00
2022-09-15T22:16:41.483Z,16.90
2022-09-15T22:19:11.496Z,16.90
2022-09-15T22:21:41.664Z,16.90
2022-09-15T22:24:12.801Z,16.90
2022-09-15T22:26:41.429Z,16.90
2022-09-15T22:29:08.220Z,16.90
2022-09-15T22:31:35.915Z,16.90
2022-09-15T22:34:03.730Z,16.90
2022-09-15T22:36:31.720Z,16.90
2022-09-15T22:39:06.330Z,16.90
2022-09-15T22:41:37.229Z,16.90
2022-09-15T22:44:06.392Z,16.90
2022-09-15T22:46:33.950Z,16.90
2022-09-15T22:49:01.348Z,16.90
2022-09-15T22:51:28.483Z,16.90
2022-09-15T22:53:56.963Z,16.90
2022-09-15T22:56:26.272Z,16.90
2022-09-15T22:58:54.439Z,16.90
2022-09-15T23:01:25.117Z,17.00
2022-09-15T23:03:55.662Z,16.90
2022-09-15T23:06:24.119Z,17.00
2022-09-15T23:08:54.059Z,16.90
2022-09-15T23:11:21.689Z,16.90
2022-09-15T23:13:49.263Z,16.90
2022-09-15T23:16:16.880Z,16.90
2022-09-15T23:18:44.179Z,16.90
2022-09-15T23:21:13.403Z,16.90
2022-09-15T23:23:46.557Z,16.90
2022-09-15T23:26:14.120Z,16.90
2022-09-15T23:28:41.622Z,16.90
2022-09-15T23:31:12.307Z,16.90
2022-09-15T23:33:40.075Z,16.90
2022-09-15T23:36:12.138Z,17.00
2022-09-15T23:38:41.818Z,16.90
2022-09-15T23:41:10.938Z,17.00
2022-09-15T23:43:37.798Z,17.00
2022-09-15T23:46:05.194Z,17.10
2022-09-15T23:48:32.546Z,17.10
2022-09-15T23:51:00.918Z,17.00
2022-09-15T23:53:28.039Z,17.00
2022-09-15T23:55:54.896Z,17.10
2022-09-15T23:58:21.744Z,17.10
